sensor_id;sensor_type;location;lat;lon;timestamp;P1;durP1;ratioP1;P2;durP2;ratioP2
37983;SDS011;64625;50.882;4.376;2023-05-28T00:01:16;25.23;;;7.63;;
37983;SDS011;64625;50.882;4.376;2023-05-28T00:03:42;15.75;;;6.90;;
37983;SDS011;64625;50.882;4.376;2023-05-28T00:06:08;27.35;;;10.50;;
37983;SDS011;64625;50.882;4.376;2023-05-28T00:08:34;18.48;;;9.10;;
37983;SDS011;64625;50.882;4.376;2023-05-28T00:11:01;18.98;;;7.82;;
37983;SDS011;64625;50.882;4.376;2023-05-28T00:13:27;19.23;;;7.82;;
37983;SDS011;64625;50.882;4.376;2023-05-28T00:15:54;25.95;;;9.25;;
37983;SDS011;64625;50.882;4.376;2023-05-28T00:18:21;24.67;;;9.45;;
37983;SDS011;64625;50.882;4.376;2023-05-28T00:20:54;22.80;;;8.43;;
37983;SDS011;64625;50.882;4.376;2023-05-28T00:25:46;23.08;;;12.18;;
37983;SDS011;64625;50.882;4.376;2023-05-28T00:28:12;20.45;;;6.97;;
37983;SDS011;64625;50.882;4.376;2023-05-28T00:30:38;18.23;;;7.85;;
37983;SDS011;64625;50.882;4.376;2023-05-28T00:33:04;16.73;;;7.38;;
37983;SDS011;64625;50.882;4.376;2023-05-28T00:35:30;29.23;;;9.20;;
37983;SDS011;64625;50.882;4.376;2023-05-28T00:37:56;26.25;;;9.18;;
37983;SDS011;64625;50.882;4.376;2023-05-28T00:40:22;22.30;;;8.43;;
37983;SDS011;64625;50.882;4.376;2023-05-28T00:42:48;20.77;;;8.07;;
37983;SDS011;64625;50.882;4.376;2023-05-28T00:45:16;16.88;;;9.43;;
37983;SDS011;64625;50.882;4.376;2023-05-28T00:47:42;25.40;;;8.38;;
37983;SDS011;64625;50.882;4.376;2023-05-28T00:50:10;20.33;;;8.80;;
37983;SDS011;64625;50.882;4.376;2023-05-28T00:52:42;21.00;;;8.85;;
37983;SDS011;64625;50.882;4.376;2023-05-28T00:55:15;20.67;;;8.38;;
37983;SDS011;64625;50.882;4.376;2023-05-28T00:57:42;20.65;;;8.45;;
37983;SDS011;64625;50.882;4.376;2023-05-28T01:00:09;31.63;;;8.52;;
37983;SDS011;64625;50.882;4.376;2023-05-28T01:02:36;25.25;;;8.93;;
37983;SDS011;64625;50.882;4.376;2023-05-28T01:05:02;22.95;;;9.98;;
37983;SDS011;64625;50.882;4.376;2023-05-28T01:07:29;21.70;;;8.95;;
37983;SDS011;64625;50.882;4.376;2023-05-28T01:09:55;25.73;;;9.75;;
37983;SDS011;64625;50.882;4.376;2023-05-28T01:12:22;19.58;;;9.40;;
37983;SDS011;64625;50.882;4.376;2023-05-28T01:14:49;29.02;;;9.85;;
37983;SDS011;64625;50.882;4.376;2023-05-28T01:17:17;21.33;;;10.05;;
37983;SDS011;64625;50.882;4.376;2023-05-28T01:19:44;43.08;;;10.00;;
37983;SDS011;64625;50.882;4.376;2023-05-28T01:22:15;26.65;;;9.27;;
37983;SDS011;64625;50.882;4.376;2023-05-28T01:24:45;25.23;;;10.27;;
37983;SDS011;64625;50.882;4.376;2023-05-28T01:27:13;35.80;;;11.05;;
37983;SDS011;64625;50.882;4.376;2023-05-28T01:29:40;22.50;;;9.43;;
37983;SDS011;64625;50.882;4.376;2023-05-28T01:32:05;23.98;;;9.38;;
37983;SDS011;64625;50.882;4.376;2023-05-28T01:34:31;22.45;;;10.13;;
37983;SDS011;64625;50.882;4.376;2023-05-28T01:37:00;21.48;;;10.32;;
37983;SDS011;64625;50.882;4.376;2023-05-28T01:39:30;23.10;;;9.40;;
37983;SDS011;64625;50.882;4.376;2023-05-28T01:42:02;29.27;;;11.45;;
37983;SDS011;64625;50.882;4.376;2023-05-28T01:44:30;32.13;;;9.93;;
37983;SDS011;64625;50.882;4.376;2023-05-28T01:46:56;31.02;;;10.40;;
37983;SDS011;64625;50.882;4.376;2023-05-28T01:49:23;29.85;;;12.13;;
37983;SDS011;64625;50.882;4.376;2023-05-28T01:51:50;34.83;;;11.85;;
37983;SDS011;64625;50.882;4.376;2023-05-28T01:54:16;26.88;;;13.02;;
37983;SDS011;64625;50.882;4.376;2023-05-28T01:56:43;27.58;;;10.23;;
37983;SDS011;64625;50.882;4.376;2023-05-28T01:59:09;29.33;;;11.60;;
37983;SDS011;64625;50.882;4.376;2023-05-28T02:01:35;23.92;;;12.40;;
37983;SDS011;64625;50.882;4.376;2023-05-28T02:04:02;30.10;;;13.70;;
37983;SDS011;64625;50.882;4.376;2023-05-28T02:06:29;27.60;;;12.38;;
37983;SDS011;64625;50.882;4.376;2023-05-28T02:08:57;24.75;;;11.68;;
37983;SDS011;64625;50.882;4.376;2023-05-28T02:11:24;29.95;;;13.63;;
37983;SDS011;64625;50.882;4.376;2023-05-28T02:13:50;29.17;;;10.45;;
37983;SDS011;64625;50.882;4.376;2023-05-28T02:16:17;30.00;;;12.85;;
37983;SDS011;64625;50.882;4.376;2023-05-28T02:18:44;28.65;;;11.65;;
37983;SDS011;64625;50.882;4.376;2023-05-28T02:21:11;33.15;;;12.90;;
37983;SDS011;64625;50.882;4.376;2023-05-28T02:23:42;26.40;;;11.23;;
37983;SDS011;64625;50.882;4.376;2023-05-28T02:26:12;24.45;;;10.60;;
37983;SDS011;64625;50.882;4.376;2023-05-28T02:28:38;25.52;;;11.52;;
37983;SDS011;64625;50.882;4.376;2023-05-28T02:31:09;37.45;;;12.90;;
37983;SDS011;64625;50.882;4.376;2023-05-28T02:33:38;30.33;;;11.57;;
37983;SDS011;64625;50.882;4.376;2023-05-28T02:36:07;28.48;;;11.90;;
37983;SDS011;64625;50.882;4.376;2023-05-28T02:38:36;38.53;;;12.15;;
37983;SDS011;64625;50.882;4.376;2023-05-28T02:41:02;36.17;;;12.60;;
37983;SDS011;64625;50.882;4.376;2023-05-28T02:43:29;31.80;;;11.88;;
37983;SDS011;64625;50.882;4.376;2023-05-28T02:45:55;26.13;;;11.48;;
37983;SDS011;64625;50.882;4.376;2023-05-28T02:48:21;26.83;;;11.55;;
37983;SDS011;64625;50.882;4.376;2023-05-28T02:50:48;25.33;;;10.27;;
37983;SDS011;64625;50.882;4.376;2023-05-28T02:53:14;35.45;;;13.60;;
37983;SDS011;64625;50.882;4.376;2023-05-28T02:55:40;37.88;;;12.15;;
37983;SDS011;64625;50.882;4.376;2023-05-28T02:58:06;33.35;;;13.38;;
37983;SDS011;64625;50.882;4.376;2023-05-28T03:00:32;31.25;;;13.75;;
37983;SDS011;64625;50.882;4.376;2023-05-28T03:02:58;30.42;;;10.07;;
37983;SDS011;64625;50.882;4.376;2023-05-28T03:05:24;21.92;;;11.00;;
37983;SDS011;64625;50.882;4.376;2023-05-28T03:07:51;24.50;;;10.77;;
37983;SDS011;64625;50.882;4.376;2023-05-28T03:10:17;26.05;;;11.10;;
37983;SDS011;64625;50.882;4.376;2023-05-28T03:12:43;22.45;;;11.68;;
37983;SDS011;64625;50.882;4.376;2023-05-28T03:15:10;21.67;;;10.98;;
37983;SDS011;64625;50.882;4.376;2023-05-28T03:17:36;21.52;;;11.13;;
37983;SDS011;64625;50.882;4.376;2023-05-28T03:20:02;42.83;;;13.52;;
37983;SDS011;64625;50.882;4.376;2023-05-28T03:22:28;38.47;;;11.85;;
37983;SDS011;64625;50.882;4.376;2023-05-28T03:24:55;33.10;;;11.60;;
37983;SDS011;64625;50.882;4.376;2023-05-28T03:27:22;37.65;;;13.30;;
37983;SDS011;64625;50.882;4.376;2023-05-28T03:29:48;24.13;;;12.18;;
37983;SDS011;64625;50.882;4.376;2023-05-28T03:32:15;32.47;;;12.57;;
37983;SDS011;64625;50.882;4.376;2023-05-28T03:34:41;29.55;;;12.80;;
37983;SDS011;64625;50.882;4.376;2023-05-28T03:37:07;29.83;;;12.60;;
37983;SDS011;64625;50.882;4.376;2023-05-28T03:39:33;30.63;;;10.88;;
37983;SDS011;64625;50.882;4.376;2023-05-28T03:41:59;33.15;;;12.07;;
37983;SDS011;64625;50.882;4.376;2023-05-28T03:44:26;38.67;;;12.52;;
37983;SDS011;64625;50.882;4.376;2023-05-28T03:46:52;27.15;;;12.10;;
37983;SDS011;64625;50.882;4.376;2023-05-28T03:49:18;31.02;;;12.40;;
37983;SDS011;64625;50.882;4.376;2023-05-28T03:51:44;33.83;;;11.50;;
37983;SDS011;64625;50.882;4.376;2023-05-28T03:54:10;30.70;;;11.77;;
37983;SDS011;64625;50.882;4.376;2023-05-28T03:56:36;35.55;;;12.25;;
37983;SDS011;64625;50.882;4.376;2023-05-28T03:59:05;25.77;;;11.95;;
37983;SDS011;64625;50.882;4.376;2023-05-28T04:01:31;27.02;;;13.15;;
37983;SDS011;64625;50.882;4.376;2023-05-28T04:03:59;32.53;;;13.65;;
37983;SDS011;64625;50.882;4.376;2023-05-28T04:06:26;30.50;;;12.85;;
37983;SDS011;64625;50.882;4.376;2023-05-28T04:08:52;28.95;;;11.25;;
37983;SDS011;64625;50.882;4.376;2023-05-28T04:11:18;35.22;;;12.77;;
37983;SDS011;64625;50.882;4.376;2023-05-28T04:13:46;25.70;;;12.40;;
37983;SDS011;64625;50.882;4.376;2023-05-28T04:16:13;32.53;;;12.57;;
37983;SDS011;64625;50.882;4.376;2023-05-28T04:18:39;39.03;;;13.82;;
37983;SDS011;64625;50.882;4.376;2023-05-28T04:21:06;35.92;;;13.07;;
37983;SDS011;64625;50.882;4.376;2023-05-28T04:23:32;28.17;;;13.07;;
37983;SDS011;64625;50.882;4.376;2023-05-28T04:25:58;31.40;;;11.80;;
37983;SDS011;64625;50.882;4.376;2023-05-28T04:28:25;29.88;;;12.90;;
37983;SDS011;64625;50.882;4.376;2023-05-28T04:30:53;28.88;;;14.43;;
37983;SDS011;64625;50.882;4.376;2023-05-28T04:33:20;24.67;;;13.32;;
37983;SDS011;64625;50.882;4.376;2023-05-28T04:35:46;31.73;;;12.65;;
37983;SDS011;64625;50.882;4.376;2023-05-28T04:38:12;26.77;;;12.25;;
37983;SDS011;64625;50.882;4.376;2023-05-28T04:40:38;36.88;;;13.80;;
37983;SDS011;64625;50.882;4.376;2023-05-28T04:43:05;29.35;;;13.65;;
37983;SDS011;64625;50.882;4.376;2023-05-28T04:45:32;35.63;;;12.48;;
37983;SDS011;64625;50.882;4.376;2023-05-28T04:47:57;24.65;;;12.45;;
37983;SDS011;64625;50.882;4.376;2023-05-28T04:50:24;34.50;;;15.02;;
37983;SDS011;64625;50.882;4.376;2023-05-28T04:52:50;34.15;;;14.13;;
37983;SDS011;64625;50.882;4.376;2023-05-28T04:55:16;27.15;;;12.80;;
37983;SDS011;64625;50.882;4.376;2023-05-28T04:57:42;28.27;;;12.60;;
37983;SDS011;64625;50.882;4.376;2023-05-28T05:00:08;38.05;;;13.05;;
37983;SDS011;64625;50.882;4.376;2023-05-28T05:02:40;32.45;;;15.13;;
37983;SDS011;64625;50.882;4.376;2023-05-28T05:05:06;28.73;;;14.70;;
37983;SDS011;64625;50.882;4.376;2023-05-28T05:07:37;37.38;;;14.52;;
37983;SDS011;64625;50.882;4.376;2023-05-28T05:10:06;35.42;;;12.93;;
37983;SDS011;64625;50.882;4.376;2023-05-28T05:12:34;41.30;;;13.80;;
37983;SDS011;64625;50.882;4.376;2023-05-28T05:15:01;31.10;;;13.88;;
37983;SDS011;64625;50.882;4.376;2023-05-28T05:17:29;29.83;;;13.63;;
37983;SDS011;64625;50.882;4.376;2023-05-28T05:19:55;50.15;;;14.98;;
37983;SDS011;64625;50.882;4.376;2023-05-28T05:22:22;30.65;;;14.10;;
37983;SDS011;64625;50.882;4.376;2023-05-28T05:24:48;39.20;;;16.42;;
37983;SDS011;64625;50.882;4.376;2023-05-28T05:27:14;31.13;;;15.93;;
37983;SDS011;64625;50.882;4.376;2023-05-28T05:29:40;31.92;;;12.10;;
37983;SDS011;64625;50.882;4.376;2023-05-28T05:32:07;35.45;;;14.35;;
37983;SDS011;64625;50.882;4.376;2023-05-28T05:34:37;31.80;;;14.15;;
37983;SDS011;64625;50.882;4.376;2023-05-28T05:37:03;27.23;;;12.15;;
37983;SDS011;64625;50.882;4.376;2023-05-28T05:39:29;23.85;;;11.35;;
37983;SDS011;64625;50.882;4.376;2023-05-28T05:41:55;31.25;;;13.60;;
37983;SDS011;64625;50.882;4.376;2023-05-28T05:44:22;24.10;;;12.98;;
37983;SDS011;64625;50.882;4.376;2023-05-28T05:46:48;28.00;;;13.77;;
37983;SDS011;64625;50.882;4.376;2023-05-28T05:49:14;33.53;;;14.23;;
37983;SDS011;64625;50.882;4.376;2023-05-28T05:51:40;33.53;;;13.60;;
37983;SDS011;64625;50.882;4.376;2023-05-28T05:54:06;29.70;;;12.55;;
37983;SDS011;64625;50.882;4.376;2023-05-28T05:56:32;25.73;;;13.15;;
37983;SDS011;64625;50.882;4.376;2023-05-28T05:58:59;23.85;;;12.60;;
37983;SDS011;64625;50.882;4.376;2023-05-28T06:01:25;32.80;;;13.57;;
37983;SDS011;64625;50.882;4.376;2023-05-28T06:03:51;24.65;;;12.35;;
37983;SDS011;64625;50.882;4.376;2023-05-28T06:06:17;27.30;;;12.65;;
37983;SDS011;64625;50.882;4.376;2023-05-28T06:08:43;29.98;;;12.38;;
37983;SDS011;64625;50.882;4.376;2023-05-28T06:11:10;19.98;;;10.35;;
37983;SDS011;64625;50.882;4.376;2023-05-28T06:13:36;29.58;;;13.43;;
37983;SDS011;64625;50.882;4.376;2023-05-28T06:16:02;23.88;;;10.65;;
37983;SDS011;64625;50.882;4.376;2023-05-28T06:18:32;25.23;;;11.65;;
37983;SDS011;64625;50.882;4.376;2023-05-28T06:20:58;21.20;;;10.90;;
37983;SDS011;64625;50.882;4.376;2023-05-28T06:23:25;29.60;;;13.05;;
37983;SDS011;64625;50.882;4.376;2023-05-28T06:25:51;26.80;;;10.32;;
37983;SDS011;64625;50.882;4.376;2023-05-28T06:28:17;28.10;;;12.98;;
37983;SDS011;64625;50.882;4.376;2023-05-28T06:30:43;23.55;;;11.20;;
37983;SDS011;64625;50.882;4.376;2023-05-28T06:33:09;27.38;;;11.77;;
37983;SDS011;64625;50.882;4.376;2023-05-28T06:35:35;25.00;;;9.80;;
37983;SDS011;64625;50.882;4.376;2023-05-28T06:38:01;24.00;;;11.40;;
37983;SDS011;64625;50.882;4.376;2023-05-28T06:40:27;31.65;;;11.57;;
37983;SDS011;64625;50.882;4.376;2023-05-28T06:42:54;24.58;;;12.60;;
37983;SDS011;64625;50.882;4.376;2023-05-28T06:45:20;23.15;;;10.60;;
37983;SDS011;64625;50.882;4.376;2023-05-28T06:47:47;29.27;;;11.55;;
37983;SDS011;64625;50.882;4.376;2023-05-28T06:50:13;25.55;;;11.43;;
37983;SDS011;64625;50.882;4.376;2023-05-28T06:52:39;31.10;;;10.13;;
37983;SDS011;64625;50.882;4.376;2023-05-28T06:55:05;24.92;;;11.10;;
37983;SDS011;64625;50.882;4.376;2023-05-28T06:57:33;22.60;;;9.82;;
37983;SDS011;64625;50.882;4.376;2023-05-28T07:00:04;25.17;;;10.30;;
37983;SDS011;64625;50.882;4.376;2023-05-28T07:02:38;17.48;;;9.07;;
37983;SDS011;64625;50.882;4.376;2023-05-28T07:05:04;29.60;;;11.65;;
37983;SDS011;64625;50.882;4.376;2023-05-28T07:07:31;22.35;;;9.95;;
37983;SDS011;64625;50.882;4.376;2023-05-28T07:09:57;30.38;;;10.93;;
37983;SDS011;64625;50.882;4.376;2023-05-28T07:12:23;21.92;;;11.48;;
37983;SDS011;64625;50.882;4.376;2023-05-28T07:14:49;25.20;;;12.00;;
37983;SDS011;64625;50.882;4.376;2023-05-28T07:17:15;22.13;;;9.68;;
37983;SDS011;64625;50.882;4.376;2023-05-28T07:19:42;33.38;;;10.23;;
37983;SDS011;64625;50.882;4.376;2023-05-28T07:22:08;19.55;;;10.25;;
37983;SDS011;64625;50.882;4.376;2023-05-28T07:24:34;28.00;;;9.38;;
37983;SDS011;64625;50.882;4.376;2023-05-28T07:27:00;20.70;;;9.60;;
37983;SDS011;64625;50.882;4.376;2023-05-28T07:29:27;22.88;;;11.60;;
37983;SDS011;64625;50.882;4.376;2023-05-28T07:31:53;22.58;;;9.57;;
37983;SDS011;64625;50.882;4.376;2023-05-28T07:34:19;19.27;;;9.23;;
37983;SDS011;64625;50.882;4.376;2023-05-28T07:36:45;32.05;;;9.32;;
37983;SDS011;64625;50.882;4.376;2023-05-28T07:39:11;25.55;;;9.82;;
37983;SDS011;64625;50.882;4.376;2023-05-28T07:41:37;18.63;;;7.93;;
37983;SDS011;64625;50.882;4.376;2023-05-28T07:44:03;15.77;;;7.93;;
37983;SDS011;64625;50.882;4.376;2023-05-28T07:46:29;24.65;;;9.90;;
37983;SDS011;64625;50.882;4.376;2023-05-28T07:48:55;24.85;;;9.05;;
37983;SDS011;64625;50.882;4.376;2023-05-28T07:51:21;12.75;;;7.38;;
37983;SDS011;64625;50.882;4.376;2023-05-28T07:53:47;18.83;;;7.75;;
37983;SDS011;64625;50.882;4.376;2023-05-28T07:56:13;16.83;;;7.18;;
37983;SDS011;64625;50.882;4.376;2023-05-28T07:58:43;23.92;;;7.88;;
37983;SDS011;64625;50.882;4.376;2023-05-28T08:01:10;20.98;;;8.18;;
37983;SDS011;64625;50.882;4.376;2023-05-28T08:03:37;14.57;;;7.15;;
37983;SDS011;64625;50.882;4.376;2023-05-28T08:06:03;17.48;;;7.78;;
37983;SDS011;64625;50.882;4.376;2023-05-28T08:08:32;19.13;;;6.72;;
37983;SDS011;64625;50.882;4.376;2023-05-28T08:10:58;26.40;;;7.53;;
37983;SDS011;64625;50.882;4.376;2023-05-28T08:13:24;21.73;;;8.07;;
37983;SDS011;64625;50.882;4.376;2023-05-28T08:15:51;16.02;;;6.95;;
37983;SDS011;64625;50.882;4.376;2023-05-28T08:18:17;18.58;;;7.28;;
37983;SDS011;64625;50.882;4.376;2023-05-28T08:20:43;18.83;;;8.07;;
37983;SDS011;64625;50.882;4.376;2023-05-28T08:23:09;17.15;;;6.68;;
37983;SDS011;64625;50.882;4.376;2023-05-28T08:25:35;17.30;;;7.75;;
37983;SDS011;64625;50.882;4.376;2023-05-28T08:28:01;23.42;;;7.15;;
37983;SDS011;64625;50.882;4.376;2023-05-28T08:30:27;12.93;;;6.60;;
37983;SDS011;64625;50.882;4.376;2023-05-28T08:32:53;23.88;;;7.25;;
37983;SDS011;64625;50.882;4.376;2023-05-28T08:35:19;18.05;;;6.47;;
37983;SDS011;64625;50.882;4.376;2023-05-28T08:37:46;21.27;;;6.40;;
37983;SDS011;64625;50.882;4.376;2023-05-28T08:40:14;26.27;;;7.15;;
37983;SDS011;64625;50.882;4.376;2023-05-28T08:42:40;14.70;;;6.43;;
37983;SDS011;64625;50.882;4.376;2023-05-28T08:45:07;14.57;;;6.03;;
37983;SDS011;64625;50.882;4.376;2023-05-28T08:47:33;27.75;;;8.00;;
37983;SDS011;64625;50.882;4.376;2023-05-28T08:50:05;19.70;;;6.47;;
37983;SDS011;64625;50.882;4.376;2023-05-28T08:52:32;15.57;;;6.30;;
37983;SDS011;64625;50.882;4.376;2023-05-28T08:54:59;24.17;;;6.72;;
37983;SDS011;64625;50.882;4.376;2023-05-28T08:57:30;18.95;;;5.95;;
37983;SDS011;64625;50.882;4.376;2023-05-28T08:59:57;23.92;;;6.07;;
37983;SDS011;64625;50.882;4.376;2023-05-28T09:02:25;17.95;;;7.10;;
37983;SDS011;64625;50.882;4.376;2023-05-28T09:04:52;19.38;;;6.32;;
37983;SDS011;64625;50.882;4.376;2023-05-28T09:07:18;13.05;;;5.22;;
37983;SDS011;64625;50.882;4.376;2023-05-28T09:09:44;17.17;;;6.28;;
37983;SDS011;64625;50.882;4.376;2023-05-28T09:12:11;16.20;;;5.80;;
37983;SDS011;64625;50.882;4.376;2023-05-28T09:14:39;19.90;;;7.13;;
37983;SDS011;64625;50.882;4.376;2023-05-28T09:17:06;17.42;;;5.35;;
37983;SDS011;64625;50.882;4.376;2023-05-28T09:19:39;17.45;;;5.97;;
37983;SDS011;64625;50.882;4.376;2023-05-28T09:22:14;18.58;;;6.93;;
37983;SDS011;64625;50.882;4.376;2023-05-28T09:24:41;24.00;;;6.85;;
37983;SDS011;64625;50.882;4.376;2023-05-28T09:27:07;17.95;;;6.65;;
37983;SDS011;64625;50.882;4.376;2023-05-28T09:29:34;16.88;;;5.50;;
37983;SDS011;64625;50.882;4.376;2023-05-28T09:32:01;15.48;;;6.57;;
37983;SDS011;64625;50.882;4.376;2023-05-28T09:34:30;15.93;;;6.10;;
37983;SDS011;64625;50.882;4.376;2023-05-28T09:37:04;14.00;;;5.57;;
37983;SDS011;64625;50.882;4.376;2023-05-28T09:39:32;20.85;;;6.82;;
37983;SDS011;64625;50.882;4.376;2023-05-28T09:41:59;14.43;;;5.38;;
37983;SDS011;64625;50.882;4.376;2023-05-28T09:44:32;19.63;;;5.95;;
37983;SDS011;64625;50.882;4.376;2023-05-28T09:46:59;17.52;;;5.20;;
37983;SDS011;64625;50.882;4.376;2023-05-28T09:49:28;15.73;;;5.63;;
37983;SDS011;64625;50.882;4.376;2023-05-28T09:51:58;17.30;;;6.25;;
37983;SDS011;64625;50.882;4.376;2023-05-28T09:54:27;17.90;;;4.97;;
37983;SDS011;64625;50.882;4.376;2023-05-28T09:56:59;15.93;;;5.38;;
37983;SDS011;64625;50.882;4.376;2023-05-28T09:59:31;14.65;;;5.30;;
37983;SDS011;64625;50.882;4.376;2023-05-28T10:02:22;14.80;;;4.40;;
37983;SDS011;64625;50.882;4.376;2023-05-28T10:04:58;15.70;;;5.50;;
37983;SDS011;64625;50.882;4.376;2023-05-28T10:07:28;22.40;;;6.25;;
37983;SDS011;64625;50.882;4.376;2023-05-28T10:09:54;16.30;;;4.97;;
37983;SDS011;64625;50.882;4.376;2023-05-28T10:12:27;12.93;;;5.45;;
37983;SDS011;64625;50.882;4.376;2023-05-28T10:14:55;16.77;;;4.70;;
37983;SDS011;64625;50.882;4.376;2023-05-28T10:17:22;13.27;;;4.50;;
37983;SDS011;64625;50.882;4.376;2023-05-28T10:19:49;10.35;;;4.50;;
37983;SDS011;64625;50.882;4.376;2023-05-28T10:22:15;11.05;;;5.47;;
37983;SDS011;64625;50.882;4.376;2023-05-28T10:24:45;17.08;;;5.28;;
37983;SDS011;64625;50.882;4.376;2023-05-28T10:27:12;10.47;;;5.67;;
37983;SDS011;64625;50.882;4.376;2023-05-28T10:29:41;12.13;;;6.25;;
37983;SDS011;64625;50.882;4.376;2023-05-28T10:32:08;18.60;;;6.10;;
37983;SDS011;64625;50.882;4.376;2023-05-28T10:34:37;25.67;;;6.95;;
37983;SDS011;64625;50.882;4.376;2023-05-28T10:37:08;13.50;;;5.25;;
37983;SDS011;64625;50.882;4.376;2023-05-28T10:39:44;10.13;;;5.10;;
37983;SDS011;64625;50.882;4.376;2023-05-28T10:42:17;18.90;;;4.80;;
37983;SDS011;64625;50.882;4.376;2023-05-28T10:45:04;14.73;;;5.10;;
37983;SDS011;64625;50.882;4.376;2023-05-28T10:52:38;16.10;;;5.70;;
37983;SDS011;64625;50.882;4.376;2023-05-28T10:55:05;18.55;;;6.18;;
37983;SDS011;64625;50.882;4.376;2023-05-28T10:57:44;10.18;;;4.95;;
37983;SDS011;64625;50.882;4.376;2023-05-28T11:00:22;15.20;;;5.30;;
37983;SDS011;64625;50.882;4.376;2023-05-28T11:02:52;13.88;;;5.32;;
37983;SDS011;64625;50.882;4.376;2023-05-28T11:05:24;12.57;;;4.47;;
37983;SDS011;64625;50.882;4.376;2023-05-28T11:07:51;15.20;;;5.20;;
37983;SDS011;64625;50.882;4.376;2023-05-28T11:10:20;11.95;;;5.00;;
37983;SDS011;64625;50.882;4.376;2023-05-28T11:12:47;13.13;;;5.07;;
37983;SDS011;64625;50.882;4.376;2023-05-28T11:15:15;16.30;;;4.95;;
37983;SDS011;64625;50.882;4.376;2023-05-28T11:17:42;12.93;;;4.82;;
37983;SDS011;64625;50.882;4.376;2023-05-28T11:20:20;18.80;;;5.45;;
37983;SDS011;64625;50.882;4.376;2023-05-28T11:22:50;10.88;;;4.82;;
37983;SDS011;64625;50.882;4.376;2023-05-28T11:25:17;18.10;;;5.35;;
37983;SDS011;64625;50.882;4.376;2023-05-28T11:27:47;15.45;;;5.00;;
37983;SDS011;64625;50.882;4.376;2023-05-28T11:30:16;15.70;;;4.97;;
37983;SDS011;64625;50.882;4.376;2023-05-28T11:32:43;15.05;;;4.72;;
37983;SDS011;64625;50.882;4.376;2023-05-28T11:35:11;14.02;;;4.82;;
37983;SDS011;64625;50.882;4.376;2023-05-28T11:37:38;18.58;;;4.72;;
37983;SDS011;64625;50.882;4.376;2023-05-28T11:40:07;11.07;;;4.55;;
37983;SDS011;64625;50.882;4.376;2023-05-28T11:42:35;11.55;;;4.03;;
37983;SDS011;64625;50.882;4.376;2023-05-28T11:45:06;15.43;;;4.68;;
37983;SDS011;64625;50.882;4.376;2023-05-28T11:47:34;15.50;;;4.88;;
37983;SDS011;64625;50.882;4.376;2023-05-28T11:52:38;10.57;;;4.75;;
37983;SDS011;64625;50.882;4.376;2023-05-28T11:55:04;9.00;;;4.55;;
37983;SDS011;64625;50.882;4.376;2023-05-28T11:57:33;7.35;;;4.30;;
37983;SDS011;64625;50.882;4.376;2023-05-28T12:00:05;11.38;;;4.88;;
37983;SDS011;64625;50.882;4.376;2023-05-28T12:02:45;11.45;;;5.20;;
37983;SDS011;64625;50.882;4.376;2023-05-28T12:05:13;13.45;;;4.93;;
37983;SDS011;64625;50.882;4.376;2023-05-28T12:07:44;13.60;;;4.03;;
37983;SDS011;64625;50.882;4.376;2023-05-28T12:10:15;13.90;;;5.35;;
37983;SDS011;64625;50.882;4.376;2023-05-28T12:12:48;16.77;;;5.50;;
37983;SDS011;64625;50.882;4.376;2023-05-28T12:15:16;14.38;;;4.60;;
37983;SDS011;64625;50.882;4.376;2023-05-28T12:17:44;13.60;;;4.93;;
37983;SDS011;64625;50.882;4.376;2023-05-28T12:22:40;15.75;;;5.70;;
37983;SDS011;64625;50.882;4.376;2023-05-28T12:25:07;15.77;;;5.95;;
37983;SDS011;64625;50.882;4.376;2023-05-28T12:27:34;13.95;;;5.07;;
37983;SDS011;64625;50.882;4.376;2023-05-28T12:30:01;15.20;;;5.97;;
37983;SDS011;64625;50.882;4.376;2023-05-28T12:32:28;17.60;;;5.68;;
37983;SDS011;64625;50.882;4.376;2023-05-28T12:34:55;23.83;;;4.93;;
37983;SDS011;64625;50.882;4.376;2023-05-28T12:37:25;11.57;;;4.43;;
37983;SDS011;64625;50.882;4.376;2023-05-28T12:39:52;18.70;;;4.70;;
37983;SDS011;64625;50.882;4.376;2023-05-28T12:42:18;13.27;;;4.47;;
37983;SDS011;64625;50.882;4.376;2023-05-28T12:44:46;13.35;;;5.72;;
37983;SDS011;64625;50.882;4.376;2023-05-28T12:47:11;10.35;;;5.32;;
37983;SDS011;64625;50.882;4.376;2023-05-28T12:49:38;12.13;;;5.00;;
37983;SDS011;64625;50.882;4.376;2023-05-28T12:52:04;12.48;;;4.55;;
37983;SDS011;64625;50.882;4.376;2023-05-28T12:54:30;10.55;;;5.05;;
37983;SDS011;64625;50.882;4.376;2023-05-28T12:56:58;16.52;;;5.03;;
37983;SDS011;64625;50.882;4.376;2023-05-28T12:59:24;23.65;;;5.43;;
37983;SDS011;64625;50.882;4.376;2023-05-28T13:01:52;14.50;;;5.82;;
37983;SDS011;64625;50.882;4.376;2023-05-28T13:04:20;15.75;;;5.28;;
37983;SDS011;64625;50.882;4.376;2023-05-28T13:06:47;14.45;;;4.90;;
37983;SDS011;64625;50.882;4.376;2023-05-28T13:09:13;13.85;;;5.05;;
37983;SDS011;64625;50.882;4.376;2023-05-28T13:11:43;17.65;;;4.88;;
37983;SDS011;64625;50.882;4.376;2023-05-28T13:14:10;13.02;;;4.97;;
37983;SDS011;64625;50.882;4.376;2023-05-28T13:16:37;12.73;;;5.40;;
37983;SDS011;64625;50.882;4.376;2023-05-28T13:19:03;14.13;;;4.65;;
37983;SDS011;64625;50.882;4.376;2023-05-28T13:21:30;17.73;;;5.28;;
37983;SDS011;64625;50.882;4.376;2023-05-28T13:24:03;15.07;;;5.18;;
37983;SDS011;64625;50.882;4.376;2023-05-28T13:26:35;15.82;;;5.38;;
37983;SDS011;64625;50.882;4.376;2023-05-28T13:29:04;19.27;;;4.25;;
37983;SDS011;64625;50.882;4.376;2023-05-28T13:31:30;13.77;;;5.18;;
37983;SDS011;64625;50.882;4.376;2023-05-28T13:33:57;16.65;;;5.57;;
37983;SDS011;64625;50.882;4.376;2023-05-28T13:36:23;11.63;;;5.07;;
37983;SDS011;64625;50.882;4.376;2023-05-28T13:38:53;14.38;;;5.03;;
37983;SDS011;64625;50.882;4.376;2023-05-28T13:41:21;14.85;;;5.35;;
37983;SDS011;64625;50.882;4.376;2023-05-28T13:43:50;9.65;;;4.72;;
37983;SDS011;64625;50.882;4.376;2023-05-28T13:46:23;16.58;;;4.70;;
37983;SDS011;64625;50.882;4.376;2023-05-28T13:48:52;14.32;;;5.97;;
37983;SDS011;64625;50.882;4.376;2023-05-28T13:51:19;17.30;;;5.18;;
37983;SDS011;64625;50.882;4.376;2023-05-28T13:53:46;10.73;;;5.15;;
37983;SDS011;64625;50.882;4.376;2023-05-28T13:56:12;9.98;;;4.70;;
37983;SDS011;64625;50.882;4.376;2023-05-28T13:58:39;9.85;;;4.85;;
37983;SDS011;64625;50.882;4.376;2023-05-28T14:01:05;12.15;;;4.45;;
37983;SDS011;64625;50.882;4.376;2023-05-28T14:03:32;9.65;;;4.00;;
37983;SDS011;64625;50.882;4.376;2023-05-28T14:05:58;15.52;;;5.68;;
37983;SDS011;64625;50.882;4.376;2023-05-28T14:08:25;15.90;;;4.70;;
37983;SDS011;64625;50.882;4.376;2023-05-28T14:10:51;19.42;;;4.50;;
37983;SDS011;64625;50.882;4.376;2023-05-28T14:13:17;13.73;;;5.47;;
37983;SDS011;64625;50.882;4.376;2023-05-28T14:15:43;8.95;;;4.47;;
37983;SDS011;64625;50.882;4.376;2023-05-28T14:18:10;9.63;;;4.10;;
37983;SDS011;64625;50.882;4.376;2023-05-28T14:20:37;22.52;;;6.35;;
37983;SDS011;64625;50.882;4.376;2023-05-28T14:23:04;11.15;;;4.22;;
37983;SDS011;64625;50.882;4.376;2023-05-28T14:25:30;13.13;;;6.55;;
37983;SDS011;64625;50.882;4.376;2023-05-28T14:27:56;16.80;;;4.78;;
37983;SDS011;64625;50.882;4.376;2023-05-28T14:30:23;11.68;;;4.82;;
37983;SDS011;64625;50.882;4.376;2023-05-28T14:32:49;16.05;;;5.10;;
37983;SDS011;64625;50.882;4.376;2023-05-28T14:35:16;10.15;;;3.30;;
37983;SDS011;64625;50.882;4.376;2023-05-28T14:37:44;10.27;;;4.70;;
37983;SDS011;64625;50.882;4.376;2023-05-28T14:40:11;8.13;;;4.38;;
37983;SDS011;64625;50.882;4.376;2023-05-28T14:42:37;15.07;;;4.25;;